Белев

Карта отелей и гостиниц, располагающихся рядом с аэропортом Белев :

Белев Тульская область 53° 48' 2.9412" N, 36° 12' 13.9212" E
Белев Тульская область 53° 48' 2.9412" N, 36° 12' 13.9212" E
Код аэродрома ИКАО
ZB0G
Код аэродрома RU
ЗБ0Г
Координаты
N53.80082° E036.20387°
Превышение над уровнем моря
156
Основная полоса
06/24
Курс магнитный
063,6/243,6
Длина основной ВПП
396
Ширина основной ВПП
20
Покрытие основной ВПП
Твёрдое (асфальт)
Освещение ВПП
Нет
Тип: 
Аэродром
Класс аэродрома: 
Принадлежность: 
АОН
Статус: 
Недействующий
Сайт: 
E-mail аэродрома: 
Страна: 
Россия
Регион: 
Тульская область
Город: 
Дополнительная информация: 
Бывшая площадка АХР. В стадии развития и реконструкции.

Найти трансфер

С помощью этой формы Вы можете найти трансфер из аэропорта Белев в город, аэропорт или вокзал:

Карта места

Javascript is required to view this map.

Погода в аэропортах:

Авиационная погода в Якутске

Регион: 
Погода METAR: 
UEEE 051100Z 04002MPS 3200 FU NSC 20/05 Q1002 R23L/09//70 NOSIG RMK QFE743
Время наблюдения
2021-08-05T11:00:00Z
Температура C
20.0
Точка росы
5.0
Направление ветра
40
Скорость ветра (узлы)
4
Метео видимость
1.99
Явления погоды
FU
Условия полета
IFR
Аэропорт подробнее: 

Авиационная погода в Москве - Остафьево

Погода METAR: 
UUMO 051100Z 26001MPS 9999 -SHRA SCT066CB 21/12 Q1017 R25/090060 NOSIG RMK QFE747/0996
Время наблюдения
2021-08-05T11:00:00Z
Температура C
21.0
Точка росы
12.0
Направление ветра
260
Скорость ветра (узлы)
2
Метео видимость
6.21
Явления погоды
-SHRA
Условия полета
VFR
Аэропорт подробнее: 

Авиационная погода в Нижневартовске

Регион: 
Погода METAR: 
USNN 051100Z 36002MPS 320V030 3600 FU BKN026 20/16 Q1010 R03/0///65 NOSIG RMK QFE753
Время наблюдения
2021-08-05T11:00:00Z
Температура C
20.0
Точка росы
16.0
Направление ветра
360
Скорость ветра (узлы)
4
Метео видимость
2.24
Явления погоды
FU
Условия полета
IFR
Аэропорт подробнее: 

Авиационная погода в аэропорту Алыкель

Регион: 
Погода METAR: 
UOOO 051100Z 04004MPS 1100 R01/1100N FU SCT022 18/16 Q1015 R01/CLRD60 NOSIG RMK QFE747/0996
Время наблюдения
2021-08-05T11:00:00Z
Температура C
18.0
Точка росы
16.0
Направление ветра
40
Скорость ветра (узлы)
8
Метео видимость
0.68
Явления погоды
FU
Условия полета
LIFR
Аэропорт подробнее: